createdAt,value
2022-10-05T00:01:32.097Z,10.06
2022-10-05T00:04:18.634Z,9.83
2022-10-05T00:07:09.070Z,9.80
2022-10-05T00:09:36.501Z,9.88
2022-10-05T00:12:18.480Z,9.76
2022-10-05T00:14:48.942Z,9.84
2022-10-05T00:17:23.973Z,9.86
2022-10-05T00:19:52.825Z,9.83
2022-10-05T00:22:37.885Z,9.73
2022-10-05T00:25:16.244Z,9.85
2022-10-05T00:27:46.136Z,9.78
2022-10-05T00:30:21.248Z,9.74
2022-10-05T00:32:48.322Z,9.85
2022-10-05T00:35:18.436Z,9.81
2022-10-05T00:37:47.167Z,9.81
2022-10-05T00:40:56.691Z,9.72
2022-10-05T00:44:30.864Z,9.91
2022-10-05T00:47:49.027Z,9.84
2022-10-05T00:50:34.433Z,9.87
2022-10-05T00:53:25.072Z,9.89
2022-10-05T00:56:14.855Z,9.79
2022-10-05T00:59:30.925Z,9.80
2022-10-05T01:02:18.725Z,9.81
2022-10-05T01:05:10.793Z,9.92
2022-10-05T01:08:33.799Z,10.12
2022-10-05T01:11:20.509Z,10.03
2022-10-05T01:14:04.033Z,9.93
2022-10-05T01:16:53.109Z,9.97
2022-10-05T01:19:55.605Z,10.05
2022-10-05T01:22:45.865Z,10.15
2022-10-05T01:25:21.548Z,9.97
2022-10-05T01:28:06.597Z,10.07
2022-10-05T01:30:47.949Z,10.14
2022-10-05T01:33:58.490Z,10.07
2022-10-05T01:36:41.700Z,10.06
2022-10-05T01:39:22.431Z,10.07
2022-10-05T01:42:25.696Z,10.06
2022-10-05T01:45:30.871Z,10.06
2022-10-05T01:48:28.455Z,10.08
2022-10-05T01:51:24.727Z,10.05
2022-10-05T01:54:26.313Z,10.10
2022-10-05T01:57:38.751Z,10.05
2022-10-05T02:00:13.907Z,10.14
2022-10-05T02:03:16.021Z,10.24
2022-10-05T02:05:59.621Z,10.21
2022-10-05T02:08:41.260Z,10.05
2022-10-05T02:11:12.807Z,10.05
2022-10-05T02:14:15.273Z,9.97
2022-10-05T02:16:46.221Z,10.04
2022-10-05T02:19:37.095Z,9.96
2022-10-05T02:22:12.571Z,9.93
2022-10-05T02:24:53.053Z,9.94
2022-10-05T02:27:39.416Z,9.81
2022-10-05T02:30:12.808Z,9.77
2022-10-05T02:32:56.088Z,10.13
2022-10-05T02:35:23.317Z,9.86
2022-10-05T02:38:40.950Z,9.80
2022-10-05T02:41:48.486Z,9.78
2022-10-05T02:44:45.174Z,9.83
2022-10-05T02:48:01.012Z,10.10
2022-10-05T02:50:54.173Z,9.99
2022-10-05T02:54:04.958Z,9.88
2022-10-05T02:57:06.539Z,9.84
2022-10-05T03:00:13.087Z,9.94
2022-10-05T03:03:14.893Z,10.11
2022-10-05T03:05:54.927Z,9.99
2022-10-05T03:08:48.353Z,9.86
2022-10-05T03:11:44.890Z,9.87
2022-10-05T03:14:32.706Z,9.89
2022-10-05T03:17:30.888Z,10.12
2022-10-05T03:20:31.059Z,9.91
2022-10-05T03:23:04.853Z,9.92
2022-10-05T03:25:50.468Z,9.94
2022-10-05T03:28:39.971Z,9.93
2022-10-05T03:31:24.213Z,9.91
2022-10-05T03:34:11.936Z,9.93
2022-10-05T03:37:16.365Z,9.96
2022-10-05T03:40:08.040Z,9.98
2022-10-05T03:43:18.646Z,10.19
2022-10-05T03:46:05.237Z,10.05
2022-10-05T03:49:00.551Z,9.82
2022-10-05T03:51:42.817Z,9.81
2022-10-05T03:54:21.285Z,9.97
2022-10-05T03:56:58.251Z,9.93
2022-10-05T04:00:25.634Z,9.74
2022-10-05T04:03:12.339Z,9.77
2022-10-05T04:05:52.367Z,9.71
2022-10-05T04:08:34.124Z,9.84
2022-10-05T04:11:10.212Z,9.83
2022-10-05T04:14:32.893Z,9.78
2022-10-05T04:17:06.778Z,9.79
2022-10-05T04:20:06.190Z,9.70
2022-10-05T04:22:46.195Z,9.77
2022-10-05T04:25:31.171Z,9.83
2022-10-05T04:28:22.620Z,9.83
2022-10-05T04:30:53.115Z,10.03
2022-10-05T04:33:21.813Z,10.00
2022-10-05T04:36:07.806Z,9.92
2022-10-05T04:39:05.154Z,9.86
2022-10-05T04:41:45.124Z,9.90
2022-10-05T04:44:59.315Z,9.85
2022-10-05T04:47:48.001Z,9.91
2022-10-05T04:50:29.864Z,9.90
2022-10-05T04:53:29.320Z,9.79
2022-10-05T04:56:15.783Z,9.80
2022-10-05T04:59:06.523Z,9.86
2022-10-05T05:02:19.379Z,9.97
2022-10-05T05:05:17.071Z,9.94
2022-10-05T05:08:19.108Z,10.00
2022-10-05T05:11:15.119Z,10.06
2022-10-05T05:14:19.540Z,10.07
2022-10-05T05:17:07.596Z,10.17
2022-10-05T05:20:04.211Z,10.43
2022-10-05T05:23:03.826Z,10.39
2022-10-05T05:26:00.269Z,10.41
2022-10-05T05:28:54.597Z,10.34
2022-10-05T05:31:49.644Z,10.54
2022-10-05T05:34:55.338Z,10.34
2022-10-05T05:38:01.790Z,10.41
2022-10-05T05:40:35.241Z,10.52
2022-10-05T05:43:22.310Z,10.48
2022-10-05T05:46:01.066Z,10.45
2022-10-05T05:48:40.265Z,10.55
2022-10-05T05:51:20.738Z,10.57
2022-10-05T05:53:55.015Z,10.70
2022-10-05T05:56:41.748Z,10.51
2022-10-05T06:00:05.566Z,10.66
2022-10-05T06:02:48.434Z,10.90
2022-10-05T06:05:27.171Z,10.95
2022-10-05T06:07:55.879Z,11.34
2022-10-05T06:10:42.448Z,11.06
2022-10-05T06:13:28.822Z,11.45
2022-10-05T06:16:27.170Z,11.49
2022-10-05T06:19:19.312Z,11.93
2022-10-05T06:22:01.171Z,11.58
2022-10-05T06:24:58.959Z,11.70
2022-10-05T06:27:57.677Z,11.52
2022-10-05T06:30:26.415Z,11.55
2022-10-05T06:33:51.017Z,11.98
2022-10-05T06:36:44.096Z,12.08
2022-10-05T06:40:36.468Z,12.23
2022-10-05T06:43:12.960Z,12.71
2022-10-05T06:46:07.142Z,12.45
2022-10-05T06:49:11.703Z,12.43
2022-10-05T06:52:00.903Z,12.45
2022-10-05T06:54:59.978Z,12.39
2022-10-05T06:57:50.519Z,12.53
2022-10-05T07:00:20.475Z,12.29
2022-10-05T07:02:58.442Z,12.46
2022-10-05T07:05:45.574Z,12.44
2022-10-05T07:08:29.184Z,12.98
2022-10-05T07:11:35.741Z,12.70
2022-10-05T07:14:26.283Z,13.36
2022-10-05T07:18:00.147Z,13.32
2022-10-05T07:20:49.387Z,13.34
2022-10-05T07:23:29.063Z,13.56
2022-10-05T07:26:14.961Z,14.61
2022-10-05T07:29:10.637Z,16.01
2022-10-05T07:32:00.145Z,16.55
2022-10-05T07:35:30.031Z,16.02
2022-10-05T07:38:05.529Z,15.67
2022-10-05T07:40:43.457Z,16.01
2022-10-05T07:43:45.374Z,15.61
2022-10-05T07:46:29.686Z,15.45
2022-10-05T07:49:23.182Z,15.02
2022-10-05T07:52:06.758Z,14.92
2022-10-05T07:55:15.281Z,15.16
2022-10-05T07:58:04.940Z,15.31
2022-10-05T08:01:19.286Z,15.52
2022-10-05T08:04:11.136Z,16.04
2022-10-05T08:06:38.226Z,16.44
2022-10-05T08:09:45.522Z,16.32
2022-10-05T08:13:12.064Z,15.92
2022-10-05T08:15:48.391Z,15.88
2022-10-05T08:18:42.600Z,16.71
2022-10-05T08:21:12.156Z,17.41
2022-10-05T08:24:19.934Z,17.59
2022-10-05T08:27:04.886Z,17.71
2022-10-05T08:29:59.308Z,17.73
2022-10-05T08:32:48.330Z,17.33
2022-10-05T08:35:43.922Z,17.53
2022-10-05T08:38:18.192Z,17.42
2022-10-05T08:41:38.727Z,17.94
2022-10-05T08:44:50.266Z,18.03
2022-10-05T08:47:56.047Z,17.53
2022-10-05T08:51:13.037Z,18.05
2022-10-05T08:53:59.005Z,17.94
2022-10-05T08:57:03.570Z,17.55
2022-10-05T09:00:00.723Z,18.27
2022-10-05T09:02:59.520Z,18.30
2022-10-05T09:05:51.053Z,18.63
2022-10-05T09:09:09.639Z,18.14
2022-10-05T09:12:21.966Z,18.45
2022-10-05T09:15:33.226Z,18.18
2022-10-05T09:18:40.953Z,18.22
2022-10-05T09:21:35.538Z,18.53
2022-10-05T09:24:39.700Z,18.05
2022-10-05T09:27:18.991Z,18.30
2022-10-05T09:30:31.963Z,18.81
2022-10-05T09:33:38.104Z,18.21
2022-10-05T09:36:22.199Z,18.23
2022-10-05T09:39:28.831Z,18.18
2022-10-05T09:42:44.646Z,18.10
2022-10-05T09:45:35.685Z,17.78
2022-10-05T09:48:40.327Z,18.03
2022-10-05T09:51:24.783Z,18.57
2022-10-05T09:54:04.344Z,18.70
2022-10-05T09:56:55.575Z,18.93
2022-10-05T09:59:59.920Z,19.25
2022-10-05T10:03:02.535Z,19.13
2022-10-05T10:06:03.356Z,19.54
2022-10-05T10:08:58.119Z,19.90
2022-10-05T10:12:07.515Z,20.22
2022-10-05T10:15:14.032Z,20.07
2022-10-05T10:17:58.737Z,20.62
2022-10-05T10:21:13.854Z,20.83
2022-10-05T10:23:46.569Z,20.80
2022-10-05T10:26:39.388Z,20.41
2022-10-05T10:29:30.946Z,20.25
2022-10-05T10:32:28.463Z,20.74
2022-10-05T10:35:37.676Z,20.39
2022-10-05T10:38:55.196Z,20.80
2022-10-05T10:46:03.209Z,21.05
2022-10-05T10:48:30.017Z,21.01
2022-10-05T10:51:05.178Z,20.84
2022-10-05T10:53:49.764Z,20.82
2022-10-05T10:56:43.274Z,20.70
2022-10-05T11:00:02.948Z,21.50
2022-10-05T11:02:53.707Z,21.10
2022-10-05T11:06:07.882Z,20.83
2022-10-05T11:09:09.429Z,20.51
2022-10-05T11:12:13.915Z,20.14
2022-10-05T11:15:16.367Z,19.91
2022-10-05T11:18:24.047Z,20.10
2022-10-05T11:21:20.921Z,20.42
2022-10-05T11:25:00.090Z,20.54
2022-10-05T11:27:59.109Z,20.48
2022-10-05T11:30:47.460Z,20.35
2022-10-05T11:34:08.011Z,20.04
2022-10-05T11:37:26.167Z,20.05
2022-10-05T11:40:26.860Z,20.29
2022-10-05T11:43:37.467Z,20.18
2022-10-05T11:46:11.201Z,20.39
2022-10-05T11:49:16.496Z,20.12
2022-10-05T11:52:21.181Z,19.88
2022-10-05T11:55:53.610Z,20.21
2022-10-05T11:58:33.789Z,20.18
2022-10-05T12:01:12.772Z,20.25
2022-10-05T12:03:57.524Z,20.34
2022-10-05T12:06:49.285Z,20.05
2022-10-05T12:09:38.122Z,19.58
2022-10-05T12:12:28.100Z,19.99
2022-10-05T12:15:08.466Z,19.82
2022-10-05T12:18:32.883Z,20.05
2022-10-05T12:21:09.988Z,19.96
2022-10-05T12:23:47.128Z,19.90
2022-10-05T12:26:39.765Z,19.75
2022-10-05T12:29:13.941Z,19.32
2022-10-05T12:32:11.708Z,19.18
2022-10-05T12:35:43.868Z,19.37
2022-10-05T12:38:45.404Z,19.67
2022-10-05T12:41:45.231Z,19.48
2022-10-05T12:44:44.596Z,19.47
2022-10-05T12:47:53.512Z,19.12
2022-10-05T12:50:34.527Z,18.74
2022-10-05T12:53:25.416Z,18.73
2022-10-05T12:56:08.876Z,19.03
2022-10-05T12:59:09.505Z,19.09
2022-10-05T13:02:19.816Z,19.00
2022-10-05T13:05:01.246Z,18.90
2022-10-05T13:07:49.076Z,18.53
2022-10-05T13:10:36.624Z,18.32
2022-10-05T13:13:46.418Z,18.56
2022-10-05T13:16:21.959Z,18.50
2022-10-05T13:19:29.482Z,18.59
2022-10-05T13:22:31.874Z,18.65
2022-10-05T13:25:30.018Z,18.33
2022-10-05T13:28:10.625Z,18.68
2022-10-05T13:30:43.633Z,18.49
2022-10-05T13:33:53.225Z,18.72
2022-10-05T13:37:14.141Z,18.60
2022-10-05T13:40:28.854Z,18.40
2022-10-05T13:43:24.821Z,18.75
2022-10-05T13:46:01.850Z,18.23
2022-10-05T13:49:08.894Z,18.19
2022-10-05T13:51:42.881Z,18.36
2022-10-05T13:54:52.850Z,18.18
2022-10-05T13:58:00.188Z,18.26
2022-10-05T14:00:27.688Z,18.26
2022-10-05T14:02:59.670Z,18.44
2022-10-05T14:05:31.732Z,18.12
2022-10-05T14:08:04.880Z,18.22
2022-10-05T14:10:45.350Z,17.97
2022-10-05T14:13:49.154Z,17.92
2022-10-05T14:16:26.234Z,17.88
2022-10-05T14:19:21.940Z,17.81
2022-10-05T14:22:11.645Z,17.68
2022-10-05T14:24:52.475Z,17.87
2022-10-05T14:27:27.247Z,17.78
2022-10-05T14:30:17.148Z,17.57
2022-10-05T14:32:52.289Z,17.48
2022-10-05T14:35:22.405Z,17.51
2022-10-05T14:38:17.308Z,17.57
2022-10-05T14:40:44.261Z,17.74
2022-10-05T14:43:14.256Z,17.53
2022-10-05T14:46:03.439Z,17.47
2022-10-05T14:48:43.541Z,17.52
2022-10-05T14:51:34.760Z,17.47
2022-10-05T14:54:15.067Z,17.42
2022-10-05T14:57:34.178Z,17.28
2022-10-05T15:00:17.658Z,17.35
2022-10-05T15:03:07.911Z,17.23
2022-10-05T15:05:58.882Z,17.02
2022-10-05T15:09:02.781Z,17.15
2022-10-05T15:11:38.876Z,17.27
2022-10-05T15:14:46.663Z,16.99
2022-10-05T15:17:44.634Z,17.03
2022-10-05T15:20:34.906Z,16.97
2022-10-05T15:23:25.838Z,16.74
2022-10-05T15:26:33.239Z,17.05
2022-10-05T15:29:52.195Z,16.85
2022-10-05T15:32:42.147Z,16.84
2022-10-05T15:35:38.774Z,16.64
2022-10-05T15:38:12.057Z,16.86
2022-10-05T15:41:11.927Z,16.92
2022-10-05T15:44:06.188Z,16.45
2022-10-05T15:46:56.489Z,16.56
2022-10-05T15:50:06.418Z,16.44
2022-10-05T15:52:46.139Z,16.54
2022-10-05T15:55:41.840Z,16.51
2022-10-05T15:58:25.958Z,16.42
2022-10-05T16:01:18.793Z,16.60
2022-10-05T16:04:18.305Z,16.43
2022-10-05T16:07:19.240Z,16.57
2022-10-05T16:10:16.503Z,16.39
2022-10-05T16:13:08.304Z,16.22
2022-10-05T16:16:12.678Z,16.35
2022-10-05T16:19:05.250Z,16.28
2022-10-05T16:22:24.874Z,16.22
2022-10-05T16:25:42.252Z,16.08
2022-10-05T16:28:29.338Z,16.16
2022-10-05T16:31:06.749Z,16.20
2022-10-05T16:34:31.450Z,16.14
2022-10-05T16:37:16.361Z,16.15
2022-10-05T16:39:52.208Z,16.10
2022-10-05T16:42:43.938Z,16.01
2022-10-05T16:46:10.062Z,15.87
2022-10-05T16:48:51.770Z,16.01
2022-10-05T16:51:46.968Z,15.84
2022-10-05T16:54:23.198Z,15.89
2022-10-05T16:57:17.817Z,15.98
2022-10-05T17:00:03.707Z,15.86
2022-10-05T17:02:42.523Z,15.79
2022-10-05T17:05:47.290Z,15.94
2022-10-05T17:08:56.141Z,15.79
2022-10-05T17:11:42.372Z,15.81
2022-10-05T17:14:49.718Z,15.95
2022-10-05T17:17:45.656Z,15.65
2022-10-05T17:20:23.644Z,15.77
2022-10-05T17:23:34.718Z,15.65
2022-10-05T17:26:23.162Z,15.68
2022-10-05T17:29:09.279Z,15.65
2022-10-05T17:32:02.936Z,15.54
2022-10-05T17:34:36.919Z,15.41
2022-10-05T17:37:40.052Z,15.67
2022-10-05T17:40:28.942Z,15.70
2022-10-05T17:43:05.496Z,15.67
2022-10-05T17:45:32.789Z,15.46
2022-10-05T17:48:05.225Z,15.57
2022-10-05T17:51:06.212Z,15.27
2022-10-05T17:54:02.831Z,15.52
2022-10-05T17:56:47.959Z,15.28
2022-10-05T17:59:46.312Z,15.25
2022-10-05T18:02:36.613Z,15.17
2022-10-05T18:05:06.859Z,15.60
2022-10-05T18:07:36.257Z,15.46
2022-10-05T18:10:12.398Z,15.44
2022-10-05T18:12:59.113Z,15.14
2022-10-05T18:15:25.895Z,15.20
2022-10-05T18:18:00.972Z,15.21
2022-10-05T18:20:34.746Z,15.32
2022-10-05T18:23:07.169Z,15.29
2022-10-05T18:25:39.203Z,15.23
2022-10-05T18:28:42.858Z,15.28
2022-10-05T18:31:42.224Z,15.07
2022-10-05T18:34:33.679Z,15.17
2022-10-05T18:37:30.187Z,15.16
2022-10-05T18:40:37.126Z,15.12
2022-10-05T18:43:06.860Z,15.10
2022-10-05T18:45:50.834Z,15.08
2022-10-05T18:48:44.611Z,15.25
2022-10-05T18:51:28.497Z,15.23
2022-10-05T18:54:30.633Z,15.23
2022-10-05T18:56:59.201Z,15.31
2022-10-05T18:59:38.286Z,15.26
2022-10-05T19:02:30.690Z,15.17
2022-10-05T19:08:39.237Z,14.96
2022-10-05T19:11:43.172Z,15.13
2022-10-05T19:14:15.914Z,15.06
2022-10-05T19:17:12.783Z,15.10
2022-10-05T19:20:19.574Z,15.20
2022-10-05T19:23:05.249Z,15.00
2022-10-05T19:26:17.858Z,15.15
2022-10-05T19:29:15.742Z,15.13
2022-10-05T19:32:23.087Z,15.01
2022-10-05T19:35:40.671Z,14.80
2022-10-05T19:38:41.415Z,14.88
2022-10-05T19:41:15.024Z,14.94
2022-10-05T19:44:18.279Z,14.98
2022-10-05T19:47:17.461Z,14.94
2022-10-05T19:49:55.379Z,15.00
2022-10-05T19:52:36.507Z,14.85
2022-10-05T19:55:20.578Z,14.65
2022-10-05T19:57:57.506Z,14.77
2022-10-05T20:00:32.588Z,14.88
2022-10-05T20:03:18.064Z,14.92
2022-10-05T20:05:45.776Z,14.90
2022-10-05T20:08:18.966Z,14.87
2022-10-05T20:11:13.782Z,14.81
2022-10-05T20:14:10.213Z,14.83
2022-10-05T20:16:56.131Z,14.79
2022-10-05T20:19:50.623Z,14.79
2022-10-05T20:22:46.538Z,14.68
2022-10-05T20:25:31.030Z,14.79
2022-10-05T20:27:58.535Z,14.70
2022-10-05T20:30:28.661Z,14.70
2022-10-05T20:32:58.259Z,14.67
2022-10-05T20:35:30.821Z,14.77
2022-10-05T20:38:02.110Z,14.69
2022-10-05T20:40:30.406Z,14.70
2022-10-05T20:42:58.509Z,14.53
2022-10-05T20:45:25.546Z,14.67
2022-10-05T20:47:52.615Z,14.77
2022-10-05T20:50:22.264Z,14.83
2022-10-05T20:52:49.325Z,14.82
2022-10-05T20:55:16.444Z,14.77
2022-10-05T20:57:43.502Z,14.60
2022-10-05T21:00:13.144Z,14.48
2022-10-05T21:02:40.479Z,14.60
2022-10-05T21:05:08.539Z,14.35
2022-10-05T21:07:35.689Z,14.49
2022-10-05T21:10:03.865Z,14.42
2022-10-05T21:12:30.984Z,14.41
2022-10-05T21:14:59.719Z,14.29
2022-10-05T21:17:26.707Z,14.48
2022-10-05T21:19:53.853Z,14.24
2022-10-05T21:22:20.825Z,14.52
2022-10-05T21:24:48.472Z,14.23
2022-10-05T21:27:15.860Z,14.10
2022-10-05T21:29:44.128Z,14.41
2022-10-05T21:32:13.902Z,14.20
2022-10-05T21:34:41.644Z,14.10
2022-10-05T21:37:09.088Z,14.24
2022-10-05T21:39:36.723Z,14.15
2022-10-05T21:42:04.503Z,13.92
2022-10-05T21:44:31.433Z,13.94
2022-10-05T21:46:58.481Z,13.84
2022-10-05T21:49:26.841Z,13.87
2022-10-05T21:51:54.363Z,13.87
2022-10-05T21:54:23.793Z,13.88
2022-10-05T21:56:54.119Z,13.86
2022-10-05T21:59:26.737Z,13.70
2022-10-05T22:01:54.056Z,13.72
2022-10-05T22:04:20.995Z,13.79
2022-10-05T22:06:49.275Z,13.87
2022-10-05T22:09:16.246Z,13.81
2022-10-05T22:11:47.407Z,13.66
2022-10-05T22:14:17.418Z,13.67
2022-10-05T22:16:44.801Z,13.67
2022-10-05T22:19:16.662Z,13.67
2022-10-05T22:21:43.703Z,13.57
2022-10-05T22:24:13.802Z,13.48
2022-10-05T22:26:43.984Z,13.34
2022-10-05T22:29:11.122Z,13.40
2022-10-05T22:31:39.340Z,13.31
2022-10-05T22:34:06.768Z,13.67
2022-10-05T22:36:37.541Z,13.33
2022-10-05T22:39:04.956Z,13.28
2022-10-05T22:41:31.909Z,13.28
2022-10-05T22:43:59.449Z,13.34
2022-10-05T22:46:26.475Z,13.31
2022-10-05T22:48:53.717Z,13.09
2022-10-05T22:51:20.666Z,13.19
2022-10-05T22:53:47.615Z,13.10
2022-10-05T22:56:15.004Z,13.07
2022-10-05T22:58:43.662Z,13.11
2022-10-05T23:01:14.084Z,13.22
2022-10-05T23:03:41.704Z,13.08
2022-10-05T23:06:14.564Z,13.02
2022-10-05T23:08:42.559Z,13.13
2022-10-05T23:11:20.652Z,13.06
2022-10-05T23:13:47.618Z,13.06
2022-10-05T23:16:17.957Z,13.02
2022-10-05T23:18:48.733Z,12.88
2022-10-05T23:21:16.400Z,13.19
2022-10-05T23:23:47.469Z,13.28
2022-10-05T23:26:15.991Z,12.95
2022-10-05T23:28:47.176Z,12.82
2022-10-05T23:31:18.010Z,12.76
2022-10-05T23:33:44.987Z,12.85
2022-10-05T23:36:27.867Z,13.00
2022-10-05T23:38:55.029Z,12.76
2022-10-05T23:41:22.078Z,12.78
2022-10-05T23:43:49.262Z,12.70
2022-10-05T23:46:17.759Z,12.76
2022-10-05T23:48:44.768Z,12.67
2022-10-05T23:51:13.522Z,12.75
2022-10-05T23:53:40.458Z,12.53
2022-10-05T23:56:08.119Z,12.68
2022-10-05T23:58:35.069Z,12.56
